Wildwood, Wisconsin
Current Conditions -  °F | °C
As of 4:55 AM on Friday 31 Oct 2014 (Local Time) from KRNH Reporting Station
Overcast Overcast  
Wind Chill: 17°   Ceiling: 3800
Heat Index: 28°   Visibility: 10mi
Dew Point: 17°   Wind: 14mph
Humidity: 62%   Direction: 360°N
Pressure: 30.44"   Gusts: NA
Location:  44.9511°N, 92.2794°W
Report Text: KRNH 310955Z AUTO 36012KT 10SM OVC038 M02/M08 A3044 RMK AO2 T10211085
Loading
Personal Weather Stations






























Interactive Weather Map
Tropical Storm Tracking
New forecast layout! Learn more

10-Day Weather Forecast

Advertisements
Track Severe Weather on mobile